Kensington, Canada
Current Conditions -  °F | °C
As of 9:19 PM on Friday 19 Dec 2014 (Local Time) from CYYG Reporting Station
Overcast Overcast  
Wind Chill: 19°   Ceiling: 2200
Heat Index: 30°   Visibility: 15mi
Dew Point: 25°   Wind: 16mph
Humidity: 80%   Direction: 10°N
Pressure: 29.93"   Gusts: NA
Location:  46.43°N, 63.65°W
Report Text: CYYG 200119Z 01014KT 15SM FEW009 OVC022 M01/M04 A2993 RMK SF1SC7 SLP137
Loading
Personal Weather Stations






























Interactive Weather Map New forecast layout! Learn more

10-Day Weather Forecast

Advertisements
Track Severe Weather on mobile